Time;durP1;ratioP1;P1;durP2;ratioP2;P2;SDS_P1;SDS_P2;PMS_P1;PMS_P2;Temp;Humidity;BMP_temperature;BMP_pressure;BME280_temperature;BME280_humidity;BME280_pressure;Samples;Min_cycle;Max_cycle;Signal;HPM_P1;HPM_P2
2020/12/02 00:00:19;;;;;;;56.20;26.77;;;3.90;99.90;;;;;;5023322;28;20490;-79
2020/12/02 00:02:54;;;;;;;61.07;28.30;;;3.80;99.90;;;;;;5021834;28;20435;-78
2020/12/02 00:05:20;;;;;;;48.13;24.50;;;3.90;99.90;;;;;;5024396;28;20428;-79
2020/12/02 00:08:06;;;;;;;55.57;27.83;;;3.90;99.90;;;;;;5026929;28;20426;-78
2020/12/02 00:10:32;;;;;;;44.40;24.40;;;3.90;99.90;;;;;;5023938;28;20489;-79
2020/12/02 00:12:58;;;;;;;62.40;27.27;;;3.90;99.90;;;;;;5025275;28;20447;-79
2020/12/02 00:15:24;;;;;;;46.10;24.10;;;3.80;99.90;;;;;;5024492;28;20441;-79
2020/12/02 00:17:57;;;;;;;50.07;25.60;;;3.80;99.90;;;;;;5027652;28;20176;-79
2020/12/02 00:20:23;;;;;;;58.27;28.80;;;3.70;99.90;;;;;;5026317;28;20192;-79
2020/12/02 00:22:49;;;;;;;54.30;27.47;;;3.70;99.90;;;;;;5024363;28;20767;-79
2020/12/02 00:25:15;;;;;;;59.43;27.13;;;3.80;99.90;;;;;;5027492;28;20438;-79
2020/12/02 00:27:41;;;;;;;57.80;26.60;;;3.60;99.90;;;;;;5021204;28;20214;-79
2020/12/02 00:30:12;;;;;;;57.37;28.03;;;3.60;99.90;;;;;;5022487;28;20892;-79
2020/12/02 00:32:41;;;;;;;59.17;28.20;;;3.70;99.90;;;;;;5027442;28;20211;-79
2020/12/02 00:35:11;;;;;;;56.17;26.00;;;3.60;99.90;;;;;;5029985;28;20451;-79
2020/12/02 00:37:36;;;;;;;58.17;24.60;;;3.60;99.90;;;;;;5032017;28;20584;-79
2020/12/02 00:40:04;;;;;;;51.80;26.90;;;3.60;99.90;;;;;;5029409;28;20883;-79
2020/12/02 00:42:30;;;;;;;55.73;27.00;;;3.60;99.90;;;;;;5029136;28;20188;-79
2020/12/02 00:44:56;;;;;;;55.47;27.73;;;3.60;99.90;;;;;;5032334;28;20892;-79
2020/12/02 00:47:24;;;;;;;52.03;27.97;;;3.60;99.90;;;;;;5031078;28;20691;-79
2020/12/02 00:49:52;;;;;;;45.50;23.87;;;3.60;99.90;;;;;;5028357;28;20198;-79
2020/12/02 00:52:18;;;;;;;46.97;23.57;;;3.60;99.90;;;;;;5028409;28;20470;-79
2020/12/02 00:54:45;;;;;;;55.50;27.50;;;3.60;99.90;;;;;;5030500;28;22714;-79
2020/12/02 00:57:17;;;;;;;49.50;25.87;;;3.60;99.90;;;;;;5028636;28;20773;-79
2020/12/02 00:59:49;;;;;;;50.37;26.00;;;3.60;99.90;;;;;;5028082;28;20420;-79
2020/12/02 01:02:29;;;;;;;52.80;26.03;;;3.60;99.90;;;;;;5030940;28;20430;-79
2020/12/02 01:04:58;;;;;;;46.70;25.20;;;3.60;99.90;;;;;;5030378;28;20457;-79
2020/12/02 01:07:27;;;;;;;51.33;25.83;;;3.60;99.90;;;;;;5030792;28;20520;-79
2020/12/02 01:09:53;;;;;;;50.40;24.87;;;3.60;99.90;;;;;;5045869;28;20482;-79
2020/12/02 01:12:19;;;;;;;52.00;27.13;;;3.60;99.90;;;;;;5027605;28;20467;-79
2020/12/02 01:14:47;;;;;;;48.40;25.80;;;3.60;99.90;;;;;;5029091;28;20981;-79
2020/12/02 01:17:13;;;;;;;49.73;25.37;;;3.60;99.90;;;;;;5030219;28;20529;-79
2020/12/02 01:19:39;;;;;;;62.77;28.90;;;3.60;99.90;;;;;;5029184;28;20445;-78
2020/12/02 01:22:18;;;;;;;46.03;24.60;;;3.70;99.90;;;;;;5029156;28;20420;-79
2020/12/02 01:25:06;;;;;;;44.77;23.20;;;3.60;99.90;;;;;;5030368;28;20172;-79
2020/12/02 01:27:41;;;;;;;53.87;24.97;;;3.60;99.90;;;;;;5029961;28;20514;-79
2020/12/02 01:30:13;;;;;;;50.17;25.07;;;3.60;99.90;;;;;;5029904;28;20460;-79
2020/12/02 01:32:43;;;;;;;54.13;27.80;;;3.60;99.90;;;;;;5028259;28;20453;-79
2020/12/02 01:35:15;;;;;;;49.33;25.10;;;3.60;99.90;;;;;;5031190;28;20844;-79
2020/12/02 01:37:42;;;;;;;47.87;25.00;;;3.60;99.90;;;;;;5030000;28;20733;-79
2020/12/02 01:40:24;;;;;;;54.80;26.57;;;3.60;99.90;;;;;;5027935;28;20924;-79
2020/12/02 01:43:00;;;;;;;42.33;21.50;;;3.70;99.90;;;;;;5029746;28;20458;-79
2020/12/02 01:45:32;;;;;;;46.20;23.80;;;3.60;99.90;;;;;;5021105;28;21991;-79
2020/12/02 01:48:08;;;;;;;48.93;24.73;;;3.70;99.90;;;;;;5030736;28;20428;-79
2020/12/02 01:50:47;;;;;;;54.20;27.07;;;3.60;99.90;;;;;;5028905;28;20921;-79
2020/12/02 01:53:26;;;;;;;51.93;23.87;;;3.60;99.90;;;;;;5026896;28;21033;-79
2020/12/02 01:55:55;;;;;;;54.77;26.10;;;3.50;99.90;;;;;;5028657;28;20963;-79
2020/12/02 01:58:50;;;;;;;48.47;25.77;;;3.50;99.90;;;;;;5023107;28;21513;-79
2020/12/02 02:01:37;;;;;;;49.40;25.80;;;3.50;99.90;;;;;;5029316;28;20457;-79
2020/12/02 02:04:05;;;;;;;61.03;25.97;;;3.50;99.90;;;;;;5028104;28;20422;-79
2020/12/02 02:06:59;;;;;;;46.80;25.23;;;3.50;99.90;;;;;;5030791;28;20481;-79
2020/12/02 02:09:27;;;;;;;54.33;25.93;;;3.50;99.90;;;;;;5028211;28;20451;-79
2020/12/02 02:12:07;;;;;;;52.47;25.20;;;3.40;99.90;;;;;;5028177;28;20459;-79
2020/12/02 02:14:47;;;;;;;48.07;23.90;;;3.60;99.90;;;;;;5027115;28;20427;-79
2020/12/02 02:17:13;;;;;;;54.10;24.17;;;3.50;99.90;;;;;;5029573;28;20448;-79
2020/12/02 02:19:38;;;;;;;55.50;27.20;;;3.50;99.90;;;;;;5029204;28;20518;-79
2020/12/02 02:22:04;;;;;;;44.23;22.93;;;3.50;99.90;;;;;;5026730;28;20173;-79
2020/12/02 02:24:30;;;;;;;45.10;23.10;;;3.50;99.90;;;;;;5029777;28;20184;-79
2020/12/02 02:26:57;;;;;;;50.57;25.80;;;3.50;99.90;;;;;;5023563;28;20619;-79
2020/12/02 02:29:37;;;;;;;47.30;24.10;;;3.40;99.90;;;;;;5027286;28;20188;-79
2020/12/02 02:32:11;;;;;;;49.37;26.47;;;3.40;99.90;;;;;;5027642;28;20450;-79
2020/12/02 02:34:39;;;;;;;40.70;21.10;;;3.30;99.90;;;;;;5030110;28;20441;-79
2020/12/02 02:37:09;;;;;;;47.40;26.30;;;3.40;99.90;;;;;;5030073;28;20470;-79
2020/12/02 02:39:35;;;;;;;49.50;24.37;;;3.40;99.90;;;;;;5027204;28;20429;-79
2020/12/02 02:42:21;;;;;;;42.43;24.90;;;3.50;99.90;;;;;;5026185;28;20433;-79
2020/12/02 02:44:47;;;;;;;44.17;22.70;;;3.50;99.90;;;;;;5026751;28;20489;-79
2020/12/02 02:47:13;;;;;;;50.67;25.57;;;3.50;99.90;;;;;;5028035;28;20435;-79
2020/12/02 02:49:38;;;;;;;46.50;24.33;;;3.40;99.90;;;;;;5028893;28;20886;-79
2020/12/02 02:52:04;;;;;;;44.20;23.77;;;3.40;99.90;;;;;;5027812;28;20209;-79
2020/12/02 02:54:30;;;;;;;51.77;24.57;;;3.40;99.90;;;;;;5027590;28;20190;-79
2020/12/02 02:56:56;;;;;;;43.23;22.27;;;3.40;99.90;;;;;;5027402;28;20261;-79
2020/12/02 02:59:22;;;;;;;44.03;22.57;;;3.50;99.90;;;;;;5028364;28;20531;-79
2020/12/02 03:01:48;;;;;;;44.63;24.47;;;3.50;99.90;;;;;;5027683;28;20585;-79
2020/12/02 03:04:14;;;;;;;46.07;24.47;;;3.50;99.90;;;;;;5027263;28;21134;-79
2020/12/02 03:06:40;;;;;;;45.87;25.00;;;3.50;99.90;;;;;;5030039;28;20919;-79
2020/12/02 03:09:09;;;;;;;46.80;24.40;;;3.50;99.90;;;;;;5027294;28;20524;-79
2020/12/02 03:11:35;;;;;;;43.53;23.53;;;3.50;99.90;;;;;;5023319;28;20458;-79
2020/12/02 03:14:02;;;;;;;40.70;22.07;;;3.50;99.90;;;;;;5027735;28;20433;-79
2020/12/02 03:16:38;;;;;;;46.47;23.70;;;3.50;99.90;;;;;;5027873;28;20806;-79
2020/12/02 03:19:08;;;;;;;47.40;24.43;;;3.50;99.90;;;;;;5028149;28;20443;-79
2020/12/02 03:21:35;;;;;;;38.33;21.90;;;3.50;99.90;;;;;;5029203;28;20922;-79
2020/12/02 03:24:01;;;;;;;41.37;22.07;;;3.50;99.90;;;;;;5027959;28;20426;-79
2020/12/02 03:26:27;;;;;;;47.27;24.33;;;3.50;99.90;;;;;;5027489;28;20695;-79
2020/12/02 03:28:53;;;;;;;54.00;24.37;;;3.50;99.90;;;;;;5028652;28;20421;-79
2020/12/02 03:31:21;;;;;;;47.80;24.67;;;3.50;99.90;;;;;;5025830;28;20466;-79
2020/12/02 03:33:48;;;;;;;45.40;23.70;;;3.50;99.90;;;;;;5027786;28;20457;-79
2020/12/02 03:36:17;;;;;;;41.80;22.00;;;3.50;99.90;;;;;;5026497;28;20755;-79
2020/12/02 03:38:44;;;;;;;39.40;22.00;;;3.50;99.90;;;;;;5028109;28;21155;-79
2020/12/02 03:41:11;;;;;;;40.93;22.90;;;3.50;99.90;;;;;;5027361;28;20433;-79
2020/12/02 03:43:37;;;;;;;41.03;23.07;;;3.60;99.90;;;;;;5027805;28;20486;-79
2020/12/02 03:46:04;;;;;;;44.27;24.00;;;3.60;99.90;;;;;;5027474;28;20426;-79
2020/12/02 03:48:29;;;;;;;47.93;23.57;;;3.50;99.90;;;;;;5028287;28;20426;-80
2020/12/02 03:50:55;;;;;;;44.07;23.23;;;3.40;99.90;;;;;;5027930;28;20453;-79
2020/12/02 03:53:21;;;;;;;37.20;20.33;;;3.40;99.90;;;;;;5027282;28;20181;-80
2020/12/02 03:55:47;;;;;;;38.00;24.30;;;3.50;99.90;;;;;;5027538;28;20662;-79
2020/12/02 03:58:13;;;;;;;47.30;23.77;;;3.50;99.90;;;;;;5027039;28;20176;-80
2020/12/02 04:00:39;;;;;;;41.50;21.90;;;3.60;99.90;;;;;;5026506;28;20426;-79
2020/12/02 04:03:06;;;;;;;41.27;23.80;;;3.60;99.90;;;;;;5027298;28;20430;-79
2020/12/02 04:05:33;;;;;;;50.47;24.70;;;3.60;99.90;;;;;;5028620;28;20510;-79
2020/12/02 04:07:58;;;;;;;43.43;22.90;;;3.50;99.90;;;;;;5026825;28;20434;-79
2020/12/02 04:10:24;;;;;;;46.60;24.27;;;3.50;99.90;;;;;;5032035;28;20445;-79
2020/12/02 04:12:50;;;;;;;43.47;23.57;;;3.50;99.90;;;;;;5030164;28;20192;-79
2020/12/02 04:15:19;;;;;;;40.43;24.20;;;3.60;99.90;;;;;;5029462;28;20873;-79
2020/12/02 04:17:47;;;;;;;45.57;23.70;;;3.60;99.90;;;;;;5030536;28;20425;-79
2020/12/02 04:20:13;;;;;;;45.30;24.00;;;3.70;99.90;;;;;;5031726;28;20511;-79
2020/12/02 04:22:38;;;;;;;48.07;24.50;;;3.60;99.90;;;;;;5032286;28;20430;-79
2020/12/02 04:25:05;;;;;;;42.63;23.30;;;3.60;99.90;;;;;;5031967;28;20505;-79
2020/12/02 04:27:30;;;;;;;41.37;22.47;;;3.60;99.90;;;;;;5030336;28;20190;-80
2020/12/02 04:29:56;;;;;;;45.30;23.60;;;3.60;99.90;;;;;;5031236;28;20431;-80
2020/12/02 04:32:22;;;;;;;48.57;25.33;;;3.50;99.90;;;;;;5045989;28;20211;-80
2020/12/02 04:34:48;;;;;;;47.07;25.00;;;3.50;99.90;;;;;;5033132;28;20215;-80
2020/12/02 04:37:13;;;;;;;42.37;23.17;;;3.60;99.90;;;;;;5031747;28;20211;-79
2020/12/02 04:39:40;;;;;;;39.63;22.60;;;3.60;99.90;;;;;;5031138;28;20171;-79
2020/12/02 04:42:06;;;;;;;42.67;23.30;;;3.60;99.90;;;;;;5030107;28;20238;-80
2020/12/02 04:44:33;;;;;;;44.43;23.07;;;3.60;99.90;;;;;;5029682;28;20982;-79
2020/12/02 04:46:59;;;;;;;39.23;21.57;;;3.60;99.90;;;;;;5030301;28;20464;-79
2020/12/02 04:49:28;;;;;;;41.77;21.70;;;3.60;99.90;;;;;;5030358;28;20940;-79
2020/12/02 04:52:02;;;;;;;46.20;20.93;;;3.60;99.90;;;;;;5028830;28;20199;-79
2020/12/02 04:54:28;;;;;;;47.33;23.27;;;3.60;99.90;;;;;;5031528;28;20430;-79
2020/12/02 04:56:54;;;;;;;43.10;22.70;;;3.60;99.90;;;;;;5027768;28;20440;-79
2020/12/02 04:59:34;;;;;;;43.77;21.90;;;3.60;99.90;;;;;;5030680;28;20182;-80
2020/12/02 05:02:00;;;;;;;46.43;24.50;;;3.60;99.90;;;;;;5028957;28;20656;-79
2020/12/02 05:04:28;;;;;;;54.77;25.60;;;3.50;99.90;;;;;;5028049;28;20438;-79
2020/12/02 05:07:14;;;;;;;42.60;22.70;;;3.40;99.90;;;;;;5030237;28;20184;-79
2020/12/02 05:09:58;;;;;;;38.03;21.10;;;3.40;99.90;;;;;;5028443;28;20446;-79
2020/12/02 05:12:28;;;;;;;43.57;24.93;;;3.40;99.90;;;;;;5024690;28;20466;-79
2020/12/02 05:15:09;;;;;;;47.20;23.70;;;3.40;99.90;;;;;;5027583;28;20911;-80
2020/12/02 05:17:34;;;;;;;42.57;23.43;;;3.40;99.90;;;;;;5022504;28;20426;-79
2020/12/02 05:20:12;;;;;;;43.17;21.90;;;3.40;99.90;;;;;;5022689;28;20444;-79
2020/12/02 05:22:46;;;;;;;45.50;23.50;;;3.50;99.90;;;;;;5022708;28;20187;-79
2020/12/02 05:25:24;;;;;;;43.87;24.77;;;3.50;99.90;;;;;;5041191;28;20433;-79
2020/12/02 05:28:15;;;;;;;36.10;22.17;;;3.50;99.90;;;;;;5029873;28;20755;-78
2020/12/02 05:30:41;;;;;;;46.77;22.60;;;3.50;99.90;;;;;;5032435;28;20434;-77
2020/12/02 05:33:13;;;;;;;39.17;21.43;;;3.50;99.90;;;;;;5033672;28;20433;-77
2020/12/02 05:35:51;;;;;;;40.97;21.47;;;3.50;99.90;;;;;;5032899;28;20425;-79
2020/12/02 05:38:36;;;;;;;45.57;21.87;;;3.50;99.90;;;;;;5032658;28;20423;-79
2020/12/02 05:41:04;;;;;;;41.97;23.73;;;3.40;99.90;;;;;;5026480;28;20442;-79
2020/12/02 05:43:47;;;;;;;45.00;21.80;;;3.40;99.90;;;;;;5025047;28;20469;-78
2020/12/02 05:46:38;;;;;;;39.63;22.20;;;3.40;99.90;;;;;;5028430;28;21264;-80
2020/12/02 05:49:07;;;;;;;43.00;21.60;;;3.30;99.90;;;;;;5031541;28;20418;-79
2020/12/02 05:51:33;;;;;;;41.63;21.67;;;3.30;99.90;;;;;;5032725;28;20452;-79
2020/12/02 05:54:14;;;;;;;42.50;22.43;;;3.40;99.90;;;;;;5032620;28;21014;-79
2020/12/02 05:56:39;;;;;;;41.73;23.30;;;3.40;99.90;;;;;;5030198;28;20486;-79
2020/12/02 05:59:06;;;;;;;40.90;22.80;;;3.50;99.90;;;;;;5032044;28;20433;-79
2020/12/02 06:01:32;;;;;;;43.53;23.07;;;3.50;99.90;;;;;;5033101;28;20288;-79
2020/12/02 06:03:59;;;;;;;43.00;23.57;;;3.50;99.90;;;;;;5029592;28;20937;-79
2020/12/02 06:06:30;;;;;;;37.70;21.83;;;3.50;99.90;;;;;;5030715;28;20921;-81
2020/12/02 06:08:57;;;;;;;40.73;21.33;;;3.40;99.90;;;;;;5028294;28;20479;-81
2020/12/02 06:11:29;;;;;;;43.03;22.67;;;3.50;99.90;;;;;;5018355;28;21069;-81
2020/12/02 06:14:34;;;;;;;44.03;24.17;;;3.40;99.90;;;;;;5030737;28;20517;-80
2020/12/02 06:17:02;;;;;;;43.70;22.50;;;3.40;99.90;;;;;;5030561;28;20450;-80
2020/12/02 06:19:37;;;;;;;40.60;23.17;;;3.40;99.90;;;;;;5031194;28;20809;-80
2020/12/02 06:22:04;;;;;;;42.87;22.43;;;3.40;99.90;;;;;;5030946;28;20435;-80
2020/12/02 06:24:47;;;;;;;49.97;21.90;;;3.40;99.90;;;;;;5032351;28;20441;-80
2020/12/02 06:27:15;;;;;;;39.00;21.20;;;3.50;99.90;;;;;;5028610;28;20747;-79
2020/12/02 06:29:43;;;;;;;38.77;21.30;;;3.50;99.90;;;;;;5030446;28;20437;-79
2020/12/02 06:32:16;;;;;;;41.77;23.67;;;3.50;99.90;;;;;;5031324;28;20477;-79
2020/12/02 06:34:42;;;;;;;39.50;21.67;;;3.50;99.90;;;;;;5032957;28;20418;-78
2020/12/02 06:37:15;;;;;;;40.20;22.30;;;3.50;99.90;;;;;;5032546;28;20777;-78
2020/12/02 06:39:46;;;;;;;42.97;22.97;;;3.50;99.90;;;;;;5047763;28;20430;-80
2020/12/02 06:42:26;;;;;;;40.60;21.97;;;3.50;99.90;;;;;;5030370;28;20437;-80
2020/12/02 06:45:17;;;;;;;41.37;22.90;;;3.50;99.90;;;;;;5034534;28;20454;-80
2020/12/02 06:47:49;;;;;;;44.83;23.30;;;3.50;99.90;;;;;;5044193;28;20654;-80
2020/12/02 06:50:23;;;;;;;37.70;20.80;;;3.40;99.90;;;;;;5047865;28;20441;-79
2020/12/02 06:52:50;;;;;;;47.80;23.23;;;3.50;99.90;;;;;;5042269;28;20454;-80
2020/12/02 06:55:23;;;;;;;40.47;22.13;;;3.50;99.90;;;;;;5038557;28;20430;-79
2020/12/02 06:58:01;;;;;;;41.50;21.90;;;3.50;99.90;;;;;;5036964;28;20423;-81
2020/12/02 07:00:30;;;;;;;48.03;21.60;;;3.50;99.90;;;;;;5034605;28;20757;-80
2020/12/02 07:03:14;;;;;;;37.30;23.43;;;3.40;99.90;;;;;;5037654;28;20766;-81
2020/12/02 07:05:44;;;;;;;41.87;22.20;;;3.40;99.90;;;;;;5031908;28;20440;-79
2020/12/02 07:08:24;;;;;;;41.83;22.47;;;3.40;99.90;;;;;;5031063;28;20425;-80
2020/12/02 07:11:05;;;;;;;46.40;23.23;;;3.30;99.90;;;;;;5025838;28;20448;-80
2020/12/02 07:13:37;;;;;;;43.10;21.23;;;3.30;99.90;;;;;;5019140;28;20437;-80
2020/12/02 07:16:19;;;;;;;46.70;23.00;;;3.20;99.90;;;;;;5031639;28;20414;-80
2020/12/02 07:18:57;;;;;;;45.77;23.10;;;3.30;99.90;;;;;;5032029;28;20402;-80
2020/12/02 07:21:33;;;;;;;44.20;22.80;;;3.20;99.90;;;;;;5031798;28;20466;-80
2020/12/02 07:24:00;;;;;;;39.93;20.57;;;3.20;99.90;;;;;;5031085;28;20431;-80
2020/12/02 07:26:27;;;;;;;44.63;23.47;;;3.20;99.90;;;;;;5030067;28;20460;-80
2020/12/02 07:29:01;;;;;;;45.30;23.37;;;3.30;99.90;;;;;;5029117;28;20471;-80
2020/12/02 07:31:29;;;;;;;44.73;23.57;;;3.20;99.90;;;;;;5038652;28;20850;-80
2020/12/02 07:34:03;;;;;;;39.27;21.30;;;3.20;99.90;;;;;;5030894;28;20728;-80
2020/12/02 07:36:34;;;;;;;42.60;23.63;;;3.20;99.90;;;;;;5029191;28;20499;-79
2020/12/02 07:39:16;;;;;;;37.87;21.20;;;3.20;99.90;;;;;;5031216;28;20503;-80
2020/12/02 07:42:17;;;;;;;40.83;21.37;;;3.20;99.90;;;;;;5028299;28;20494;-80
2020/12/02 07:44:49;;;;;;;42.53;21.57;;;3.30;99.90;;;;;;5034033;28;20434;-80
2020/12/02 07:47:16;;;;;;;43.03;21.10;;;3.20;99.90;;;;;;5032557;28;20757;-80
2020/12/02 07:49:55;;;;;;;38.33;21.07;;;3.20;99.90;;;;;;5035792;28;20434;-80
2020/12/02 07:52:29;;;;;;;43.77;21.73;;;3.30;99.90;;;;;;5033314;28;20448;-79
2020/12/02 07:54:56;;;;;;;37.33;20.47;;;3.30;99.90;;;;;;5034184;28;20500;-80
2020/12/02 07:57:27;;;;;;;38.43;21.67;;;3.30;99.90;;;;;;5033063;28;20432;-80
2020/12/02 08:00:12;;;;;;;43.33;21.77;;;3.30;99.90;;;;;;5035472;28;20502;-80
2020/12/02 08:02:40;;;;;;;40.07;19.77;;;3.40;99.90;;;;;;5034957;28;20491;-80
2020/12/02 08:05:34;;;;;;;41.10;21.10;;;3.40;99.90;;;;;;5033970;28;20433;-80
2020/12/02 08:08:00;;;;;;;41.13;23.10;;;3.60;99.90;;;;;;5035249;28;20496;-80
2020/12/02 08:10:31;;;;;;;45.40;23.07;;;3.50;99.90;;;;;;5034076;28;20528;-80
2020/12/02 08:13:00;;;;;;;42.80;21.00;;;3.60;99.90;;;;;;5033016;28;20444;-80
2020/12/02 08:15:26;;;;;;;39.13;23.67;;;3.60;99.90;;;;;;5039072;28;20448;-79
2020/12/02 08:18:25;;;;;;;37.67;21.00;;;3.50;99.90;;;;;;5043814;28;20423;-80
2020/12/02 08:20:51;;;;;;;41.17;20.40;;;3.50;99.90;;;;;;5033369;28;20465;-80
2020/12/02 08:23:32;;;;;;;42.17;21.60;;;3.50;99.90;;;;;;5036086;28;20421;-80
2020/12/02 08:26:11;;;;;;;37.87;21.03;;;3.40;99.90;;;;;;5036522;28;20499;-81
2020/12/02 08:28:38;;;;;;;34.30;21.37;;;3.40;99.90;;;;;;5039996;28;20441;-80
2020/12/02 08:31:15;;;;;;;33.00;18.30;;;3.40;99.90;;;;;;5036569;28;20536;-80
2020/12/02 08:33:41;;;;;;;45.57;24.50;;;3.50;99.90;;;;;;5033682;28;20440;-80
2020/12/02 08:36:09;;;;;;;37.20;21.53;;;3.50;99.90;;;;;;5033997;28;20848;-80
2020/12/02 08:38:40;;;;;;;39.53;22.27;;;3.50;99.90;;;;;;5035538;28;20181;-80
2020/12/02 08:41:17;;;;;;;35.13;20.60;;;3.40;99.90;;;;;;5035818;28;20430;-80
2020/12/02 08:43:48;;;;;;;37.27;21.60;;;3.50;99.90;;;;;;5033397;28;20455;-80
2020/12/02 08:46:25;;;;;;;39.30;21.60;;;3.40;99.90;;;;;;5035673;28;20744;-80
2020/12/02 08:48:56;;;;;;;41.87;21.30;;;3.50;99.90;;;;;;5034196;28;20429;-80
2020/12/02 08:51:23;;;;;;;32.87;19.17;;;3.50;99.90;;;;;;5033465;28;20450;-80
2020/12/02 08:53:50;;;;;;;38.73;19.50;;;3.50;99.90;;;;;;5034577;28;20425;-80
2020/12/02 08:56:27;;;;;;;38.47;20.83;;;3.50;99.90;;;;;;5034995;28;20422;-80
2020/12/02 08:58:53;;;;;;;37.60;21.30;;;3.50;99.90;;;;;;5035534;28;20429;-80
2020/12/02 09:01:19;;;;;;;46.77;22.87;;;3.40;99.90;;;;;;5036771;28;20434;-81
2020/12/02 09:03:45;;;;;;;39.30;21.70;;;3.40;99.90;;;;;;5036621;28;20616;-80
2020/12/02 09:06:17;;;;;;;43.33;25.80;;;3.50;99.90;;;;;;5035433;28;20439;-80
2020/12/02 09:08:44;;;;;;;40.90;20.37;;;3.40;99.90;;;;;;5030784;28;20531;-81
2020/12/02 09:11:12;;;;;;;44.10;24.03;;;3.40;99.90;;;;;;5033600;28;20943;-80
2020/12/02 09:13:38;;;;;;;40.00;23.13;;;3.50;99.90;;;;;;5032340;28;20433;-80
2020/12/02 09:16:03;;;;;;;44.87;22.40;;;3.60;99.90;;;;;;5033272;28;20426;-80
2020/12/02 09:18:29;;;;;;;43.77;23.37;;;3.50;99.90;;;;;;5032772;28;20645;-80
2020/12/02 09:20:55;;;;;;;38.60;22.43;;;3.60;99.90;;;;;;5030946;28;20262;-81
2020/12/02 09:23:20;;;;;;;38.87;21.10;;;3.50;99.90;;;;;;5032726;28;20171;-80
2020/12/02 09:25:46;;;;;;;40.40;22.10;;;3.50;99.90;;;;;;5031736;28;20206;-80
2020/12/02 09:28:12;;;;;;;37.97;20.53;;;3.70;99.90;;;;;;5032875;28;20166;-80
2020/12/02 09:30:38;;;;;;;41.50;23.07;;;3.70;99.90;;;;;;5036457;28;20530;-81
2020/12/02 09:33:03;;;;;;;41.93;23.63;;;3.70;99.90;;;;;;5034782;28;20235;-78
2020/12/02 09:35:29;;;;;;;36.47;21.13;;;3.70;99.90;;;;;;5035013;28;20175;-79
2020/12/02 09:37:55;;;;;;;42.80;21.40;;;3.70;99.90;;;;;;5033576;28;20225;-78
2020/12/02 09:40:21;;;;;;;39.50;20.43;;;3.70;99.90;;;;;;5034237;28;20172;-82
2020/12/02 09:42:53;;;;;;;38.97;19.87;;;3.80;99.90;;;;;;5030548;28;20188;-78
2020/12/02 09:45:24;;;;;;;40.47;21.37;;;3.80;99.90;;;;;;5033267;28;20429;-79
2020/12/02 09:47:53;;;;;;;37.00;21.10;;;3.80;99.90;;;;;;5031830;28;20427;-79
2020/12/02 09:50:20;;;;;;;47.63;22.93;;;3.80;99.90;;;;;;5033309;28;20419;-79
2020/12/02 09:52:50;;;;;;;40.20;22.13;;;3.70;99.90;;;;;;5031045;28;20468;-78
2020/12/02 09:55:24;;;;;;;40.20;21.73;;;3.70;99.90;;;;;;5031515;28;20468;-78
2020/12/02 09:57:52;;;;;;;38.67;21.17;;;3.80;99.90;;;;;;5030816;28;20752;-78
2020/12/02 10:00:22;;;;;;;39.13;20.50;;;3.70;99.90;;;;;;5030618;28;20464;-78
2020/12/02 10:02:55;;;;;;;42.20;22.57;;;3.70;99.90;;;;;;5031258;28;20433;-77
2020/12/02 10:05:32;;;;;;;37.23;21.77;;;3.70;99.90;;;;;;5029705;28;20763;-76
2020/12/02 10:08:18;;;;;;;36.60;20.87;;;3.70;99.90;;;;;;5032253;28;20422;-75
2020/12/02 10:11:06;;;;;;;38.10;21.93;;;3.70;99.90;;;;;;5031940;28;20462;-75
2020/12/02 10:14:16;;;;;;;38.93;20.70;;;3.70;99.90;;;;;;5028750;28;20485;-75
2020/12/02 10:17:26;;;;;;;36.07;20.83;;;3.80;99.90;;;;;;5031277;28;20433;-75
2020/12/02 10:20:20;;;;;;;41.17;19.47;;;3.80;99.90;;;;;;5030267;28;20437;-75
2020/12/02 10:23:10;;;;;;;39.53;21.60;;;3.80;99.90;;;;;;5030563;28;20969;-76
2020/12/02 10:26:13;;;;;;;42.63;20.57;;;3.80;99.90;;;;;;5027911;28;20853;-75
2020/12/02 10:29:16;;;;;;;42.53;21.60;;;3.80;99.90;;;;;;5028630;28;20432;-75
2020/12/02 10:32:11;;;;;;;45.37;22.10;;;3.70;99.90;;;;;;5030837;28;20484;-75
2020/12/02 10:34:42;;;;;;;32.70;18.67;;;3.70;99.90;;;;;;5033001;28;20508;-75
2020/12/02 10:37:31;;;;;;;37.90;22.17;;;3.80;99.90;;;;;;5032911;28;20433;-76
2020/12/02 10:39:57;;;;;;;37.20;20.67;;;3.90;99.90;;;;;;5030466;28;20433;-75
2020/12/02 10:42:42;;;;;;;37.67;20.50;;;3.90;99.90;;;;;;5032215;28;20902;-75
2020/12/02 10:45:21;;;;;;;33.30;19.50;;;3.90;99.90;;;;;;5032604;28;20189;-75
2020/12/02 10:48:15;;;;;;;46.63;22.30;;;3.90;99.90;;;;;;5032454;28;20412;-75
2020/12/02 10:50:41;;;;;;;36.03;20.30;;;3.90;99.90;;;;;;5029075;28;20440;-75
2020/12/02 10:53:11;;;;;;;36.77;20.50;;;3.90;99.90;;;;;;5031413;28;20487;-75
2020/12/02 10:55:38;;;;;;;34.30;19.60;;;3.90;99.90;;;;;;5032187;28;20525;-75
2020/12/02 10:58:14;;;;;;;33.30;19.93;;;3.90;99.90;;;;;;5032280;28;20464;-75
2020/12/02 11:00:40;;;;;;;34.27;20.43;;;3.90;99.90;;;;;;5031290;28;20504;-75
2020/12/02 11:03:12;;;;;;;37.37;21.50;;;4.00;99.90;;;;;;5031441;28;20513;-75
2020/12/02 11:05:38;;;;;;;32.97;20.67;;;4.00;99.90;;;;;;5031580;28;20919;-75
2020/12/02 11:09:00;;;;;;;35.17;20.40;;;4.10;99.90;;;;;;5032419;28;20885;-76
2020/12/02 11:11:37;;;;;;;35.83;22.40;;;4.10;99.90;;;;;;5029405;28;20595;-75
2020/12/02 11:14:12;;;;;;;39.67;22.00;;;4.10;99.90;;;;;;5030115;28;20501;-75
2020/12/02 11:17:06;;;;;;;38.47;19.77;;;4.10;99.90;;;;;;5031574;28;20429;-76
2020/12/02 11:19:57;;;;;;;34.57;21.03;;;4.10;99.90;;;;;;5029950;28;20429;-76
2020/12/02 11:22:51;;;;;;;37.40;19.10;;;4.10;99.90;;;;;;5031807;28;20434;-76
2020/12/02 11:25:27;;;;;;;37.40;20.87;;;4.20;99.90;;;;;;5032464;28;20753;-76
2020/12/02 11:27:54;;;;;;;43.07;21.97;;;4.10;99.90;;;;;;5031860;28;20443;-75
2020/12/02 11:30:33;;;;;;;38.70;20.03;;;4.20;99.90;;;;;;5032096;28;20507;-75
2020/12/02 11:33:52;;;;;;;36.70;20.90;;;4.20;99.90;;;;;;5030611;28;20461;-75
2020/12/02 11:36:45;;;;;;;33.33;19.23;;;4.20;99.90;;;;;;5032137;28;20410;-75
2020/12/02 11:39:33;;;;;;;35.17;21.17;;;4.20;99.90;;;;;;5046678;28;20465;-75
2020/12/02 11:42:20;;;;;;;34.87;20.70;;;4.20;99.90;;;;;;5032087;28;20458;-76
2020/12/02 11:45:06;;;;;;;37.43;20.37;;;4.20;99.90;;;;;;5030981;28;20526;-76
2020/12/02 11:48:02;;;;;;;34.80;19.90;;;4.20;99.90;;;;;;5029754;28;20432;-76
2020/12/02 11:50:35;;;;;;;33.20;19.63;;;4.20;99.90;;;;;;5031453;28;20438;-76
2020/12/02 11:53:38;;;;;;;36.57;20.87;;;4.20;99.90;;;;;;5031159;28;20928;-76
2020/12/02 11:56:04;;;;;;;33.63;19.60;;;4.30;99.90;;;;;;5031064;28;20939;-75
2020/12/02 11:58:30;;;;;;;36.50;20.33;;;4.30;99.90;;;;;;5031575;28;20408;-75
2020/12/02 12:01:05;;;;;;;29.73;17.40;;;4.20;99.90;;;;;;5031503;28;20429;-76
2020/12/02 12:03:47;;;;;;;36.23;21.10;;;4.20;99.90;;;;;;5031530;28;20429;-76
2020/12/02 12:06:20;;;;;;;30.73;18.47;;;4.20;99.90;;;;;;5031201;28;20445;-75
2020/12/02 12:08:55;;;;;;;40.07;19.73;;;4.20;99.90;;;;;;5031996;28;20405;-75
2020/12/02 12:11:32;;;;;;;33.63;20.17;;;4.10;99.90;;;;;;5031365;28;20846;-75
2020/12/02 12:14:14;;;;;;;36.03;20.07;;;4.10;99.90;;;;;;5028889;28;20441;-75
2020/12/02 12:16:45;;;;;;;35.47;20.90;;;4.10;99.90;;;;;;5031606;28;20715;-75
2020/12/02 12:19:27;;;;;;;38.33;18.50;;;4.10;99.90;;;;;;5028795;28;20515;-75
2020/12/02 12:22:14;;;;;;;34.37;20.67;;;4.10;99.90;;;;;;5030811;28;20476;-75
2020/12/02 12:24:45;;;;;;;43.53;20.80;;;4.10;99.90;;;;;;5031540;28;20414;-75
2020/12/02 12:27:13;;;;;;;35.93;19.83;;;4.10;99.90;;;;;;5031642;28;20412;-75
2020/12/02 12:29:39;;;;;;;41.07;21.00;;;4.10;99.90;;;;;;5031331;28;20406;-76
2020/12/02 12:32:11;;;;;;;35.00;20.97;;;4.10;99.90;;;;;;5020478;28;20908;-76
2020/12/02 12:34:56;;;;;;;34.27;20.40;;;4.20;99.90;;;;;;5020276;28;20426;-73
2020/12/02 12:37:44;;;;;;;39.10;21.30;;;4.20;99.90;;;;;;5025426;28;20434;-73
2020/12/02 12:40:26;;;;;;;37.83;19.33;;;4.30;99.90;;;;;;5025817;28;20542;-74
2020/12/02 12:42:56;;;;;;;39.57;19.77;;;4.30;99.90;;;;;;5026479;28;20481;-75
2020/12/02 12:45:34;;;;;;;35.23;20.50;;;4.30;99.90;;;;;;5028599;28;20583;-74
2020/12/02 12:48:01;;;;;;;30.07;18.37;;;4.30;99.90;;;;;;5027138;28;20434;-74
2020/12/02 12:50:27;;;;;;;41.47;22.03;;;4.30;99.90;;;;;;5029991;28;20439;-74
2020/12/02 12:52:53;;;;;;;43.73;22.50;;;4.30;99.90;;;;;;5028573;28;20832;-74
2020/12/02 12:55:19;;;;;;;35.10;18.57;;;4.40;99.90;;;;;;5022609;28;20443;-74
2020/12/02 12:57:50;;;;;;;37.73;18.80;;;4.40;99.90;;;;;;5023539;28;20434;-74
2020/12/02 13:00:17;;;;;;;36.53;20.70;;;4.40;99.90;;;;;;5031201;28;20525;-74
2020/12/02 13:02:43;;;;;;;38.90;21.07;;;4.40;99.90;;;;;;5028308;28;20448;-74
2020/12/02 13:05:13;;;;;;;36.00;21.43;;;4.30;99.90;;;;;;5029736;28;20439;-74